Time;durP1;ratioP1;P1;durP2;ratioP2;P2;SDS_P1;SDS_P2;PMS_P1;PMS_P2;Temp;Humidity;BMP_temperature;BMP_pressure;BME280_temperature;BME280_humidity;BME280_pressure;Samples;Min_cycle;Max_cycle;Signal;HPM_P1;HPM_P2
2023/10/28 00:00:47;;;;;;;8.65;4.10;;;15.20;91.40;;;;;;4997121;28;20149;-82
2023/10/28 00:03:13;;;;;;;8.15;4.25;;;15.10;91.40;;;;;;4997100;28;20028;-82
2023/10/28 00:05:39;;;;;;;8.02;3.85;;;15.20;91.50;;;;;;5014552;28;20080;-82
2023/10/28 00:08:05;;;;;;;8.68;4.25;;;15.10;91.50;;;;;;5014487;28;20476;-82
2023/10/28 00:10:32;;;;;;;9.20;3.88;;;15.10;91.50;;;;;;4996873;28;20080;-82
2023/10/28 00:12:59;;;;;;;8.68;4.20;;;15.10;91.50;;;;;;5014476;28;20109;-82
2023/10/28 00:15:25;;;;;;;8.98;4.38;;;15.10;91.50;;;;;;4996574;28;20022;-82
2023/10/28 00:17:51;;;;;;;9.00;4.15;;;15.10;91.50;;;;;;5013782;28;20025;-82
2023/10/28 00:20:17;;;;;;;9.05;4.70;;;15.10;91.50;;;;;;4996893;28;20033;-82
2023/10/28 00:22:53;;;;;;;9.48;4.00;;;15.10;91.50;;;;;;5014568;28;20358;-82
2023/10/28 00:25:22;;;;;;;8.07;3.80;;;15.10;91.50;;;;;;4996709;28;20457;-82
2023/10/28 00:27:47;;;;;;;7.25;3.78;;;15.10;91.50;;;;;;4996550;28;20463;-82
2023/10/28 00:30:13;;;;;;;7.90;4.30;;;15.10;91.50;;;;;;4996197;28;20057;-82
2023/10/28 00:32:39;;;;;;;8.85;4.18;;;15.10;91.80;;;;;;4996699;28;20037;-82
2023/10/28 00:35:07;;;;;;;8.05;4.05;;;15.10;91.60;;;;;;5013872;28;20428;-82
2023/10/28 00:37:33;;;;;;;7.22;3.72;;;15.10;91.60;;;;;;4996290;28;20026;-82
2023/10/28 00:39:58;;;;;;;7.43;3.78;;;15.10;91.50;;;;;;4996045;28;20092;-82
2023/10/28 00:42:24;;;;;;;9.15;3.92;;;15.10;91.50;;;;;;4991728;28;20119;-82
2023/10/28 00:44:50;;;;;;;7.63;3.95;;;15.20;91.40;;;;;;4976485;28;20023;-82
2023/10/28 00:47:16;;;;;;;7.20;3.70;;;15.20;91.40;;;;;;4976597;28;20109;-82
2023/10/28 00:49:43;;;;;;;7.78;3.55;;;15.20;91.30;;;;;;4976492;28;20026;-82
2023/10/28 00:52:08;;;;;;;9.05;3.95;;;15.20;91.30;;;;;;4976559;28;20512;-83
2023/10/28 00:54:35;;;;;;;7.05;3.33;;;15.30;91.30;;;;;;4976514;28;20135;-82
2023/10/28 00:57:01;;;;;;;7.53;3.72;;;15.20;91.20;;;;;;4976451;28;20031;-82
2023/10/28 00:59:28;;;;;;;6.63;3.67;;;15.20;91.20;;;;;;4976370;28;20022;-82
2023/10/28 01:01:54;;;;;;;7.53;4.00;;;15.20;91.30;;;;;;4976589;28;20058;-82
2023/10/28 01:04:20;;;;;;;8.20;4.38;;;15.20;91.30;;;;;;4993837;28;20488;-82
2023/10/28 01:06:46;;;;;;;7.15;3.50;;;15.20;91.30;;;;;;4976558;28;20077;-82
2023/10/28 01:09:12;;;;;;;8.23;3.92;;;15.20;91.40;;;;;;4993708;28;20022;-82
2023/10/28 01:11:39;;;;;;;7.13;3.55;;;15.20;91.40;;;;;;4976519;28;20032;-82
2023/10/28 01:14:06;;;;;;;6.68;3.85;;;15.10;91.40;;;;;;4976403;28;20113;-82
2023/10/28 01:16:32;;;;;;;7.43;3.97;;;15.10;91.40;;;;;;4976279;28;20022;-82
2023/10/28 01:18:57;;;;;;;8.20;3.80;;;15.10;91.40;;;;;;4992193;28;20018;-82
2023/10/28 01:21:23;;;;;;;7.78;3.95;;;15.10;91.40;;;;;;4993961;28;20034;-82
2023/10/28 01:23:49;;;;;;;7.10;4.00;;;15.10;91.50;;;;;;4976087;28;20027;-82
2023/10/28 01:26:14;;;;;;;7.43;3.53;;;15.10;91.50;;;;;;4976131;28;20043;-82
2023/10/28 01:28:40;;;;;;;8.88;3.72;;;15.10;91.50;;;;;;4975802;28;20042;-82
2023/10/28 01:31:05;;;;;;;6.70;3.65;;;15.10;91.50;;;;;;4993355;28;20026;-82
2023/10/28 01:33:31;;;;;;;7.50;3.90;;;15.10;91.50;;;;;;4976118;28;20031;-82
2023/10/28 01:35:57;;;;;;;7.10;4.00;;;15.10;91.50;;;;;;4975865;28;20492;-82
2023/10/28 01:38:23;;;;;;;7.22;3.88;;;15.10;91.50;;;;;;4975774;28;20502;-82
2023/10/28 01:40:50;;;;;;;7.25;3.70;;;15.10;91.50;;;;;;4976125;28;20034;-82
2023/10/28 01:43:16;;;;;;;7.60;3.60;;;15.10;91.50;;;;;;4975900;28;20036;-82
2023/10/28 01:45:41;;;;;;;6.60;3.85;;;15.10;91.50;;;;;;4975859;28;20050;-82
2023/10/28 01:48:07;;;;;;;6.30;3.30;;;15.10;91.50;;;;;;4975927;28;20026;-83
2023/10/28 01:50:32;;;;;;;6.75;3.80;;;15.10;91.50;;;;;;4975734;28;20029;-82
2023/10/28 01:52:58;;;;;;;7.18;3.78;;;15.10;91.50;;;;;;4993150;28;20097;-82
2023/10/28 01:55:24;;;;;;;7.43;3.58;;;15.10;91.60;;;;;;4991636;28;20495;-82
2023/10/28 01:57:50;;;;;;;6.97;3.38;;;15.10;91.60;;;;;;4992074;28;20436;-82
2023/10/28 02:00:16;;;;;;;6.00;3.13;;;15.10;91.50;;;;;;4975610;28;20026;-82
2023/10/28 02:02:44;;;;;;;7.13;3.67;;;15.20;91.50;;;;;;4993074;28;20019;-82
2023/10/28 02:05:11;;;;;;;6.22;3.45;;;15.20;91.40;;;;;;4992962;28;20110;-82
2023/10/28 02:07:37;;;;;;;5.80;3.40;;;15.20;91.40;;;;;;4975720;28;20519;-82
2023/10/28 02:10:05;;;;;;;6.97;3.45;;;15.20;91.30;;;;;;4992842;28;20496;-82
2023/10/28 02:12:34;;;;;;;6.00;3.08;;;15.20;91.20;;;;;;4975668;28;20408;-82
2023/10/28 02:15:01;;;;;;;6.65;3.17;;;15.30;91.20;;;;;;4975034;28;20692;-81
2023/10/28 02:17:26;;;;;;;6.43;3.63;;;15.20;91.20;;;;;;5011018;28;20476;-82
2023/10/28 02:19:52;;;;;;;5.85;3.00;;;15.20;91.20;;;;;;4994782;28;20129;-83
2023/10/28 02:22:17;;;;;;;5.50;3.00;;;15.20;91.20;;;;;;4994961;28;20076;-82
2023/10/28 02:24:43;;;;;;;5.90;3.03;;;15.20;91.30;;;;;;4995037;28;20109;-82
2023/10/28 02:27:10;;;;;;;5.75;2.90;;;15.20;91.30;;;;;;4986371;28;20052;-82
2023/10/28 02:29:37;;;;;;;5.95;3.10;;;15.20;91.30;;;;;;5010279;28;20025;-82
2023/10/28 02:32:04;;;;;;;6.03;3.03;;;15.20;91.40;;;;;;4994940;28;20138;-82
2023/10/28 02:34:29;;;;;;;5.65;3.20;;;15.10;91.40;;;;;;4994797;28;20040;-82
2023/10/28 02:36:55;;;;;;;6.53;3.13;;;15.10;91.40;;;;;;4994804;28;20022;-82
2023/10/28 02:39:20;;;;;;;7.13;3.28;;;15.10;91.40;;;;;;4994644;28;20022;-82
2023/10/28 02:41:46;;;;;;;6.22;3.03;;;15.10;91.40;;;;;;5014061;28;20018;-82
2023/10/28 02:44:12;;;;;;;5.53;3.03;;;15.10;91.40;;;;;;5016173;28;20018;-82
2023/10/28 02:46:38;;;;;;;5.63;2.75;;;15.10;91.50;;;;;;5016108;28;20369;-82
2023/10/28 02:49:04;;;;;;;6.43;3.00;;;15.10;91.50;;;;;;5015988;28;20392;-82
2023/10/28 02:51:29;;;;;;;5.75;2.95;;;15.10;91.50;;;;;;4998503;28;20057;-82
2023/10/28 02:53:55;;;;;;;5.55;2.75;;;15.10;91.50;;;;;;4998302;28;20044;-83
2023/10/28 02:56:21;;;;;;;6.63;3.00;;;15.10;91.50;;;;;;4998148;28;20065;-82
2023/10/28 02:58:47;;;;;;;5.15;2.55;;;15.10;91.50;;;;;;5015967;28;20467;-82
2023/10/28 03:01:13;;;;;;;6.00;2.97;;;15.10;91.50;;;;;;4998036;28;20488;-82
2023/10/28 03:03:41;;;;;;;7.30;3.10;;;15.10;91.50;;;;;;4998300;28;20025;-83
2023/10/28 03:06:06;;;;;;;6.40;3.20;;;15.10;91.50;;;;;;5016674;28;20515;-82
2023/10/28 03:08:32;;;;;;;5.20;2.67;;;15.10;91.50;;;;;;4998021;28;20051;-82
2023/10/28 03:10:58;;;;;;;6.35;2.88;;;15.10;91.50;;;;;;4998089;28;20046;-82
2023/10/28 03:13:23;;;;;;;5.63;2.80;;;15.10;91.50;;;;;;5015484;28;20026;-82
2023/10/28 03:15:49;;;;;;;5.80;2.85;;;15.10;91.50;;;;;;4997938;28;20504;-82
2023/10/28 03:18:15;;;;;;;5.00;2.40;;;15.10;91.60;;;;;;4997832;28;20026;-82
2023/10/28 03:20:41;;;;;;;5.65;2.60;;;15.10;91.80;;;;;;4997895;28;20022;-82
2023/10/28 03:23:07;;;;;;;5.43;2.78;;;15.10;91.50;;;;;;4997721;28;20018;-82
2023/10/28 03:25:33;;;;;;;6.03;2.92;;;15.10;91.40;;;;;;4997712;28;20033;-82
2023/10/28 03:28:00;;;;;;;5.40;2.78;;;15.10;91.40;;;;;;4997789;28;20080;-82
2023/10/28 03:30:26;;;;;;;5.50;2.67;;;15.20;91.30;;;;;;5015151;28;20027;-82
2023/10/28 03:32:52;;;;;;;4.93;2.65;;;15.30;91.30;;;;;;5015273;28;20026;-82
2023/10/28 03:35:17;;;;;;;5.15;2.75;;;15.20;91.20;;;;;;4997357;28;20032;-83
2023/10/28 03:37:44;;;;;;;5.82;2.50;;;15.20;91.20;;;;;;4997543;28;20022;-82
2023/10/28 03:40:10;;;;;;;5.45;2.42;;;15.20;91.20;;;;;;4997363;28;20022;-82
2023/10/28 03:42:36;;;;;;;4.70;2.50;;;15.20;91.20;;;;;;4997411;28;20026;-82
2023/10/28 03:45:03;;;;;;;4.68;2.38;;;15.20;91.30;;;;;;4997336;28;20443;-82
2023/10/28 03:47:29;;;;;;;5.10;2.42;;;15.20;91.30;;;;;;4997371;28;20026;-82
2023/10/28 03:49:55;;;;;;;5.47;2.40;;;15.10;91.30;;;;;;4997308;28;20021;-82
2023/10/28 03:52:20;;;;;;;4.63;2.45;;;15.10;91.40;;;;;;5013574;28;20030;-82
2023/10/28 03:54:46;;;;;;;4.65;2.47;;;15.10;91.40;;;;;;4997188;28;20029;-82
2023/10/28 03:57:11;;;;;;;4.93;2.42;;;15.10;91.40;;;;;;4997108;28;20030;-82
2023/10/28 03:59:37;;;;;;;5.03;2.30;;;15.10;91.40;;;;;;4996003;28;20072;-82
2023/10/28 04:02:03;;;;;;;5.63;2.47;;;15.10;91.40;;;;;;4985755;28;20026;-82
2023/10/28 04:04:29;;;;;;;5.90;2.60;;;15.10;91.40;;;;;;4995062;28;20018;-82
2023/10/28 04:06:55;;;;;;;4.65;2.33;;;15.10;91.50;;;;;;4977511;28;20030;-83
2023/10/28 04:09:22;;;;;;;5.65;2.70;;;15.10;91.50;;;;;;5009856;28;20029;-82
2023/10/28 04:11:47;;;;;;;4.28;2.30;;;15.10;91.50;;;;;;4977466;28;20062;-82
2023/10/28 04:14:13;;;;;;;5.38;2.60;;;15.10;91.50;;;;;;5009839;28;20057;-82
2023/10/28 04:16:39;;;;;;;5.25;2.40;;;15.10;91.50;;;;;;5013255;28;20037;-82
2023/10/28 04:19:05;;;;;;;5.25;2.70;;;15.10;91.50;;;;;;5034062;28;20024;-82
2023/10/28 04:21:30;;;;;;;5.75;2.30;;;15.00;91.50;;;;;;4999712;28;20396;-82
2023/10/28 04:23:56;;;;;;;5.32;2.40;;;15.10;91.50;;;;;;4996710;28;20160;-82
2023/10/28 04:26:21;;;;;;;5.03;2.33;;;15.10;91.50;;;;;;4996606;28;20057;-82
2023/10/28 04:28:47;;;;;;;4.25;2.10;;;15.10;91.50;;;;;;4996473;28;20025;-82
2023/10/28 04:31:15;;;;;;;4.50;2.13;;;15.10;91.50;;;;;;4996550;28;20026;-83
2023/10/28 04:33:40;;;;;;;4.35;2.58;;;15.10;91.50;;;;;;4996409;28;20385;-82
2023/10/28 04:36:07;;;;;;;6.22;2.45;;;15.10;91.60;;;;;;4996476;28;20032;-82
2023/10/28 04:38:34;;;;;;;5.10;2.53;;;15.10;91.60;;;;;;4996628;28;20109;-82
2023/10/28 04:41:00;;;;;;;4.45;2.03;;;15.10;91.50;;;;;;4996301;28;20026;-82
2023/10/28 04:43:25;;;;;;;4.95;2.10;;;15.10;91.50;;;;;;4996294;28;20072;-82
2023/10/28 04:45:52;;;;;;;4.28;2.00;;;15.10;91.40;;;;;;4996348;28;20395;-82
2023/10/28 04:48:18;;;;;;;5.25;2.13;;;15.10;91.30;;;;;;4996168;28;20033;-82
2023/10/28 04:50:45;;;;;;;5.20;2.28;;;15.20;91.30;;;;;;4996124;28;20047;-82
2023/10/28 04:53:10;;;;;;;4.03;2.00;;;15.20;91.30;;;;;;4996033;28;20495;-82
2023/10/28 04:55:36;;;;;;;3.95;2.10;;;15.20;91.20;;;;;;4995916;28;20044;-82
2023/10/28 04:58:02;;;;;;;4.95;2.20;;;15.20;91.20;;;;;;4996045;28;20030;-82
2023/10/28 05:00:28;;;;;;;6.50;2.25;;;15.20;91.20;;;;;;4995922;28;20022;-82
2023/10/28 05:02:54;;;;;;;4.32;1.88;;;15.20;91.30;;;;;;4995757;28;20362;-81
2023/10/28 05:05:19;;;;;;;5.30;2.10;;;15.10;91.30;;;;;;5013261;28;20041;-82
2023/10/28 05:07:45;;;;;;;4.82;2.20;;;15.10;91.30;;;;;;5013301;28;20029;-82
2023/10/28 05:10:10;;;;;;;4.60;2.10;;;15.10;91.30;;;;;;5013372;28;20447;-82
2023/10/28 05:12:39;;;;;;;4.30;2.00;;;15.10;91.40;;;;;;4995702;28;20026;-82
2023/10/28 05:15:08;;;;;;;3.63;1.98;;;15.10;91.40;;;;;;4995508;28;20030;-82
2023/10/28 05:17:38;;;;;;;3.58;1.90;;;15.10;91.40;;;;;;4995873;28;20568;-82
2023/10/28 05:20:06;;;;;;;3.97;1.83;;;15.10;91.70;;;;;;4995451;28;20033;-82
2023/10/28 05:22:37;;;;;;;4.00;1.75;;;15.10;91.50;;;;;;4995588;28;20113;-82
2023/10/28 05:25:07;;;;;;;3.90;1.97;;;15.10;91.50;;;;;;4995880;28;20032;-82
2023/10/28 05:27:33;;;;;;;4.15;2.03;;;15.10;91.50;;;;;;5013204;28;20032;-82
2023/10/28 05:29:59;;;;;;;4.72;2.20;;;15.10;91.50;;;;;;4995294;28;20030;-82
2023/10/28 05:32:25;;;;;;;3.72;1.80;;;15.10;91.50;;;;;;4995533;28;20029;-82
2023/10/28 05:34:50;;;;;;;3.33;1.73;;;15.10;91.50;;;;;;4995389;28;20026;-82
2023/10/28 05:37:16;;;;;;;4.40;1.98;;;15.10;91.50;;;;;;4994111;28;20567;-82
2023/10/28 05:39:42;;;;;;;5.22;2.30;;;15.10;91.50;;;;;;4989074;28;20072;-83
2023/10/28 05:42:08;;;;;;;4.75;2.10;;;15.00;91.50;;;;;;5011607;28;20518;-83
2023/10/28 05:44:35;;;;;;;3.92;1.92;;;15.10;91.50;;;;;;4997852;28;20022;-82
2023/10/28 05:47:01;;;;;;;4.57;1.90;;;15.00;91.50;;;;;;5012146;23;20088;-82
2023/10/28 05:49:26;;;;;;;3.63;1.65;;;15.00;91.50;;;;;;4995999;28;20025;-83
2023/10/28 05:51:52;;;;;;;5.22;2.28;;;15.00;91.50;;;;;;4995962;28;20396;-82
2023/10/28 05:54:17;;;;;;;3.60;1.77;;;15.00;91.50;;;;;;4995912;28;20025;-82
2023/10/28 05:56:43;;;;;;;4.28;2.03;;;15.10;91.60;;;;;;4995058;28;20030;-81
2023/10/28 05:59:09;;;;;;;2.53;1.52;;;15.00;91.50;;;;;;4983992;28;20037;-81
2023/10/28 06:01:35;;;;;;;3.42;1.52;;;15.10;91.50;;;;;;4973624;28;20118;-81
2023/10/28 06:04:01;;;;;;;5.05;2.45;;;15.10;91.40;;;;;;4965242;28;20373;-82
2023/10/28 06:12:46;;;;;;;4.97;2.05;;;15.20;91.30;;;;;;5115240;23;20061;-80
2023/10/28 06:18:26;;;;;;;3.70;1.70;;;15.10;91.20;;;;;;5974841;23;20033;-81
2023/10/28 06:20:52;;;;;;;3.63;1.70;;;15.20;91.20;;;;;;4997501;28;20042;-80
2023/10/28 06:23:18;;;;;;;3.30;1.60;;;15.10;91.20;;;;;;4997693;28;20018;-81
2023/10/28 08:04:44;;;;;;;;;;;;;;;;;;;;;
2023/10/28 08:34:36;;;;;;;2.58;1.23;;;15.00;91.40;;;;;;3969955;23;20302;-81
2023/10/28 08:37:03;;;;;;;2.70;1.40;;;15.10;91.50;;;;;;4932061;29;20054;-80
2023/10/28 08:39:29;;;;;;;3.60;1.33;;;15.10;91.40;;;;;;4937508;29;20049;-80
2023/10/28 08:41:56;;;;;;;3.15;1.38;;;15.10;91.40;;;;;;4935899;29;20023;-82
2023/10/28 08:44:27;;;;;;;2.25;1.20;;;15.10;91.30;;;;;;4936484;29;20105;-82
2023/10/28 09:00:44;;;;;;;2.90;1.30;;;15.20;91.10;;;;;;4931603;29;20038;-82
2023/10/28 09:04:19;;;;;;;;;;;;;;;;;;;;;
2023/10/28 09:14:13;;;;;;;4.30;1.60;;;15.10;91.30;;;;;;4874586;29;20073;-84
2023/10/28 09:30:53;;;;;;;4.63;1.15;;;15.10;91.40;;;;;;4983863;28;20408;-80
2023/10/28 09:33:18;;;;;;;3.72;1.52;;;15.10;91.40;;;;;;4967858;28;20030;-79
2023/10/28 09:35:46;;;;;;;4.57;1.55;;;15.10;91.40;;;;;;4964777;28;20026;-80
2023/10/28 09:38:12;;;;;;;4.82;1.30;;;15.10;91.40;;;;;;4970432;28;20080;-79
2023/10/28 09:40:38;;;;;;;5.68;1.60;;;15.10;91.40;;;;;;4978912;28;20031;-81
2023/10/28 09:43:05;;;;;;;4.88;1.45;;;15.10;91.40;;;;;;4969371;28;20033;-81
2023/10/28 09:48:15;;;;;;;4.22;1.20;;;15.10;91.40;;;;;;5362149;23;20062;-82
2023/10/28 09:50:49;;;;;;;4.43;1.40;;;15.10;91.40;;;;;;4973922;28;20030;-81
2023/10/28 09:53:30;;;;;;;4.18;1.27;;;15.10;91.40;;;;;;4973856;28;20026;-81
2023/10/28 10:04:26;;;;;;;2.92;1.20;;;15.10;91.30;;;;;;5111348;23;20109;-81
2023/10/28 10:29:48;;;;;;;2.65;1.10;;;15.10;91.20;;;;;;5422655;23;20053;-81
2023/10/28 10:32:18;;;;;;;6.38;1.38;;;15.10;91.30;;;;;;4993122;28;20022;-80
2023/10/28 10:34:45;;;;;;;4.57;1.27;;;15.10;91.30;;;;;;4993064;28;20036;-79
2023/10/28 10:42:24;;;;;;;4.47;1.20;;;15.10;91.30;;;;;;5215701;23;20063;-81
2023/10/28 10:44:52;;;;;;;2.63;1.10;;;15.10;91.40;;;;;;4973681;28;20034;-80
2023/10/28 10:47:17;;;;;;;4.00;1.13;;;15.10;91.40;;;;;;4972970;28;20088;-79
2023/10/28 10:49:43;;;;;;;3.35;1.10;;;15.10;91.40;;;;;;4972945;28;20030;-80
2023/10/28 10:52:09;;;;;;;3.97;1.20;;;15.10;91.40;;;;;;4973245;28;20026;-81
2023/10/28 10:54:38;;;;;;;3.30;1.10;;;15.10;91.40;;;;;;4973530;28;20520;-80
2023/10/28 11:03:03;;;;;;;5.00;1.45;;;15.10;91.70;;;;;;4991169;28;20046;-80
2023/10/28 11:05:36;;;;;;;3.53;1.00;;;15.10;91.50;;;;;;5008019;23;20028;-78
2023/10/28 11:21:46;;;;;;;5.68;1.20;;;15.00;91.40;;;;;;4952082;29;20083;-79
2023/10/28 11:24:17;;;;;;;4.03;1.40;;;15.20;91.40;;;;;;4935240;29;20031;-80
2023/10/28 11:26:46;;;;;;;4.13;1.10;;;15.10;91.30;;;;;;5001767;23;20053;-80
2023/10/28 11:29:49;;;;;;;5.93;1.30;;;15.20;91.30;;;;;;5014498;28;20033;-81
2023/10/28 11:32:19;;;;;;;4.78;1.00;;;15.10;91.20;;;;;;5014587;28;20036;-79
2023/10/28 11:34:48;;;;;;;4.28;1.10;;;15.20;91.20;;;;;;5014562;28;20028;-79
2023/10/28 11:37:21;;;;;;;3.10;1.15;;;15.20;91.20;;;;;;5014404;28;20385;-79
2023/10/28 11:39:53;;;;;;;4.10;1.10;;;16.50;91.60;;;;;;5031837;28;20029;-78
2023/10/28 11:42:45;;;;;;;3.40;1.30;;;15.10;91.20;;;;;;5014045;28;20021;-78
2023/10/28 11:45:11;;;;;;;4.28;1.20;;;15.30;91.30;;;;;;5010323;28;20112;-78
2023/10/28 11:47:51;;;;;;;4.15;1.25;;;15.30;91.40;;;;;;4993906;28;20144;-77
2023/10/28 11:50:30;;;;;;;2.47;0.93;;;16.60;91.70;;;;;;4993552;28;20400;-78
2023/10/28 11:52:58;;;;;;;3.65;1.30;;;15.10;91.40;;;;;;5011754;28;20026;-77
2023/10/28 11:55:45;;;;;;;3.72;1.20;;;15.50;91.50;;;;;;4989535;28;20038;-80
2023/10/28 11:58:23;;;;;;;3.53;1.25;;;15.20;91.40;;;;;;4983160;28;20076;-78
2023/10/28 12:00:56;;;;;;;3.65;0.90;;;14.90;91.40;;;;;;4993462;28;20029;-79
2023/10/28 12:03:33;;;;;;;2.65;1.02;;;15.10;91.50;;;;;;4994221;28;20072;-78
2023/10/28 12:06:15;;;;;;;3.05;1.05;;;15.10;91.50;;;;;;5010983;28;20496;-78
2023/10/28 12:08:52;;;;;;;4.18;1.17;;;15.90;91.70;;;;;;4993883;28;20026;-78
2023/10/28 12:11:23;;;;;;;3.03;0.90;;;15.10;91.50;;;;;;5011449;28;20124;-78
2023/10/28 12:13:48;;;;;;;3.38;1.10;;;16.10;91.80;;;;;;4992424;28;20033;-78
2023/10/28 12:16:43;;;;;;;4.50;1.00;;;15.10;91.50;;;;;;4993590;28;20041;-79
2023/10/28 12:19:17;;;;;;;2.67;1.00;;;15.10;91.50;;;;;;4954416;28;20104;-78
2023/10/28 12:21:43;;;;;;;3.20;1.10;;;15.10;91.50;;;;;;4993368;28;20041;-79
2023/10/28 12:24:18;;;;;;;26.08;4.45;;;15.20;91.60;;;;;;4993183;28;20026;-79
2023/10/28 12:26:44;;;;;;;11.85;1.70;;;15.10;91.50;;;;;;5010151;28;20080;-78
2023/10/28 12:29:10;;;;;;;28.33;3.30;;;15.30;91.50;;;;;;4993308;28;20037;-77
2023/10/28 12:31:35;;;;;;;25.90;3.28;;;15.30;91.50;;;;;;4993218;28;20443;-78
2023/10/28 12:34:03;;;;;;;21.25;2.80;;;15.20;91.50;;;;;;4990797;28;20026;-77
2023/10/28 12:36:29;;;;;;;23.80;2.95;;;15.10;91.50;;;;;;5008369;28;20057;-78
2023/10/28 12:38:54;;;;;;;25.98;3.00;;;15.10;91.50;;;;;;4991383;28;20022;-77
2023/10/28 12:41:20;;;;;;;24.02;2.95;;;15.20;91.40;;;;;;4992273;28;20484;-78
2023/10/28 12:43:45;;;;;;;20.60;2.60;;;15.20;91.40;;;;;;4991656;28;20061;-78
2023/10/28 12:46:11;;;;;;;17.83;2.20;;;15.20;91.30;;;;;;4992016;28;20121;-80
2023/10/28 12:48:36;;;;;;;19.13;2.50;;;15.20;91.30;;;;;;4991763;28;20036;-79
2023/10/28 12:51:02;;;;;;;13.32;2.72;;;15.30;91.30;;;;;;4992876;28;20030;-78
2023/10/28 12:53:29;;;;;;;11.68;2.60;;;15.30;91.20;;;;;;4993114;28;20080;-80
2023/10/28 12:55:55;;;;;;;18.05;2.35;;;15.40;91.10;;;;;;4992220;28;20038;-79
2023/10/28 12:58:21;;;;;;;13.65;1.80;;;15.40;91.00;;;;;;4992471;28;20022;-77
2023/10/28 13:00:47;;;;;;;17.40;1.90;;;15.40;90.90;;;;;;4992635;28;20026;-79
2023/10/28 13:03:14;;;;;;;11.43;1.83;;;15.40;90.90;;;;;;5010267;28;20113;-78
2023/10/28 13:05:40;;;;;;;16.65;2.35;;;15.40;90.90;;;;;;4992940;28;20373;-78
2023/10/28 13:08:06;;;;;;;14.00;1.92;;;15.40;91.00;;;;;;5009694;28;20040;-79
2023/10/28 13:10:32;;;;;;;13.07;1.88;;;15.30;91.00;;;;;;4992574;28;20072;-78
2023/10/28 13:12:58;;;;;;;13.07;1.90;;;15.30;91.10;;;;;;5010015;28;20450;-79
2023/10/28 13:15:24;;;;;;;11.35;2.05;;;15.30;91.10;;;;;;5010274;28;20026;-78
2023/10/28 13:17:50;;;;;;;14.40;2.10;;;15.40;91.20;;;;;;4992437;28;20586;-78
2023/10/28 13:20:16;;;;;;;8.98;1.50;;;15.30;91.20;;;;;;5010184;28;20203;-78
2023/10/28 13:22:42;;;;;;;12.65;1.70;;;15.30;91.20;;;;;;4991954;28;20069;-78
2023/10/28 13:25:08;;;;;;;8.77;1.85;;;15.20;91.20;;;;;;4991606;28;20404;-78
2023/10/28 13:27:35;;;;;;;9.20;1.83;;;15.30;91.30;;;;;;4991852;28;20033;-77
2023/10/28 13:30:08;;;;;;;10.90;1.63;;;15.30;91.30;;;;;;4992107;28;20065;-78
2023/10/28 13:32:34;;;;;;;11.50;1.75;;;15.20;91.30;;;;;;4991706;28;20087;-80
2023/10/28 13:35:00;;;;;;;9.68;1.65;;;15.30;91.30;;;;;;4991662;28;20054;-79
2023/10/28 13:37:25;;;;;;;9.68;1.70;;;15.30;91.40;;;;;;4992423;28;20064;-78
2023/10/28 13:39:51;;;;;;;13.68;1.67;;;15.30;91.40;;;;;;4991893;28;20054;-78
2023/10/28 13:42:17;;;;;;;10.40;1.88;;;15.30;91.40;;;;;;4991484;28;20030;-78
2023/10/28 13:44:42;;;;;;;13.57;1.83;;;15.30;91.40;;;;;;5003317;28;20026;-81
2023/10/28 13:47:08;;;;;;;10.65;1.80;;;15.30;91.40;;;;;;4990544;28;20472;-79
2023/10/28 13:49:34;;;;;;;5.45;1.55;;;15.20;91.40;;;;;;4990928;28;20084;-76
2023/10/28 13:52:01;;;;;;;6.85;1.67;;;15.30;91.40;;;;;;4989046;28;20027;-78
2023/10/28 13:54:31;;;;;;;8.25;1.48;;;15.30;91.40;;;;;;5006414;28;20109;-79
2023/10/28 13:56:57;;;;;;;6.00;1.33;;;15.20;91.40;;;;;;4987524;28;20423;-78
2023/10/28 13:59:23;;;;;;;9.73;1.92;;;15.30;91.40;;;;;;4989348;28;20057;-79
2023/10/28 14:01:50;;;;;;;5.65;1.40;;;15.30;91.40;;;;;;4990792;28;20057;-78
2023/10/28 14:04:16;;;;;;;7.90;1.63;;;15.30;91.40;;;;;;4991111;28;20374;-80
2023/10/28 14:06:42;;;;;;;7.35;1.30;;;15.30;91.30;;;;;;4990774;28;20022;-78
2023/10/28 14:09:09;;;;;;;6.88;1.30;;;15.30;91.20;;;;;;4990925;28;20369;-79
2023/10/28 14:11:35;;;;;;;6.72;1.50;;;15.30;91.20;;;;;;4990897;28;20026;-79
2023/10/28 14:14:00;;;;;;;6.72;1.50;;;15.30;91.20;;;;;;4991021;28;20092;-79
2023/10/28 14:16:26;;;;;;;7.13;1.60;;;15.40;91.20;;;;;;4990835;28;20552;-79
2023/10/28 14:18:52;;;;;;;6.13;1.20;;;15.30;91.20;;;;;;4990715;28;20033;-79
2023/10/28 14:21:24;;;;;;;6.55;1.30;;;15.30;91.20;;;;;;4990751;28;20414;-79
2023/10/28 14:23:51;;;;;;;5.93;1.00;;;15.30;91.30;;;;;;4990981;28;20021;-79
2023/10/28 14:26:17;;;;;;;8.98;1.60;;;15.20;91.30;;;;;;4990425;28;20038;-78
2023/10/28 14:28:44;;;;;;;8.82;1.30;;;15.30;91.30;;;;;;5008421;28;20104;-79
2023/10/28 14:31:10;;;;;;;6.13;1.67;;;15.20;91.30;;;;;;4991220;28;20184;-79
2023/10/28 14:33:36;;;;;;;6.13;1.17;;;15.20;91.40;;;;;;5009051;28;20037;-79
2023/10/28 14:36:06;;;;;;;6.57;1.27;;;15.20;91.40;;;;;;5007834;28;20045;-78
2023/10/28 14:38:32;;;;;;;4.47;1.38;;;15.20;91.40;;;;;;5011336;28;20018;-76
2023/10/28 14:40:58;;;;;;;6.88;1.10;;;15.20;91.50;;;;;;4994323;28;20036;-79
2023/10/28 14:43:24;;;;;;;12.15;1.52;;;15.20;91.50;;;;;;4994615;28;20061;-78
2023/10/28 14:45:49;;;;;;;4.40;1.10;;;15.20;91.50;;;;;;4994176;28;20029;-79
2023/10/28 14:48:15;;;;;;;4.13;1.27;;;15.20;91.50;;;;;;4994275;28;20025;-79
2023/10/28 14:50:46;;;;;;;4.72;1.13;;;15.20;91.50;;;;;;4994233;28;20131;-78
2023/10/28 14:53:13;;;;;;;5.72;1.27;;;15.20;91.50;;;;;;4994379;28;20089;-79
2023/10/28 14:55:38;;;;;;;7.22;1.60;;;15.20;91.60;;;;;;4993949;28;20795;-76
2023/10/28 14:58:04;;;;;;;4.25;1.20;;;15.10;91.60;;;;;;4993527;28;20106;-79
2023/10/28 15:00:30;;;;;;;6.30;1.25;;;15.10;91.60;;;;;;4994036;28;20021;-80
2023/10/28 15:02:55;;;;;;;5.55;1.20;;;15.20;91.60;;;;;;4993926;28;20076;-79
2023/10/28 15:05:22;;;;;;;6.18;1.40;;;15.10;91.60;;;;;;5011142;28;20029;-79
2023/10/28 15:07:48;;;;;;;5.28;1.10;;;15.20;91.60;;;;;;5011822;28;20057;-78
2023/10/28 15:10:13;;;;;;;6.53;1.30;;;15.10;91.60;;;;;;4993645;28;20225;-78
2023/10/28 15:12:39;;;;;;;4.70;1.00;;;15.10;91.60;;;;;;4993743;28;20543;-78
2023/10/28 15:15:05;;;;;;;4.53;1.27;;;15.10;91.60;;;;;;4993420;28;20026;-78
2023/10/28 15:17:30;;;;;;;3.20;1.05;;;15.10;91.60;;;;;;5010700;28;20053;-78
2023/10/28 15:19:56;;;;;;;4.70;1.15;;;15.10;91.60;;;;;;4991859;28;20068;-78
2023/10/28 15:22:21;;;;;;;3.42;1.02;;;15.20;91.60;;;;;;5010253;28;20425;-77
2023/10/28 15:24:48;;;;;;;3.47;0.80;;;15.10;91.60;;;;;;4993111;28;20064;-78
2023/10/28 15:27:14;;;;;;;5.10;0.90;;;15.20;91.50;;;;;;5010183;28;20934;-78
2023/10/28 15:29:40;;;;;;;2.97;0.80;;;15.20;91.50;;;;;;4993105;28;20050;-78
2023/10/28 15:32:05;;;;;;;3.70;1.00;;;15.20;91.40;;;;;;4993075;28;20057;-77
2023/10/28 15:34:34;;;;;;;5.75;0.95;;;15.20;91.40;;;;;;4993062;28;20026;-78
2023/10/28 15:36:59;;;;;;;3.42;1.00;;;15.20;91.40;;;;;;4992230;28;20056;-78
2023/10/28 15:39:25;;;;;;;3.95;1.10;;;15.20;91.60;;;;;;5010134;28;20053;-77
2023/10/28 15:41:50;;;;;;;2.85;0.95;;;15.20;91.30;;;;;;4992535;28;20026;-79
2023/10/28 15:44:16;;;;;;;2.65;1.00;;;15.20;91.30;;;;;;4993111;28;20022;-79
2023/10/28 15:46:42;;;;;;;4.78;1.10;;;15.20;91.40;;;;;;4992487;28;20092;-77
2023/10/28 15:49:10;;;;;;;3.70;1.00;;;15.20;91.40;;;;;;4992280;28;20026;-78
2023/10/28 15:51:36;;;;;;;3.17;0.95;;;15.20;91.70;;;;;;4992674;28;20141;-77
2023/10/28 15:54:03;;;;;;;4.68;1.00;;;15.20;91.50;;;;;;4992349;28;20132;-79
2023/10/28 15:56:29;;;;;;;3.42;1.00;;;15.20;91.50;;;;;;5010015;28;20040;-78
2023/10/28 15:58:55;;;;;;;4.10;0.95;;;15.20;91.60;;;;;;4992144;28;20025;-76
2023/10/28 16:01:20;;;;;;;5.15;1.20;;;15.10;91.60;;;;;;4992145;28;20574;-78
2023/10/28 16:03:47;;;;;;;3.13;0.93;;;15.10;91.60;;;;;;4992101;28;20017;-79
2023/10/28 16:06:13;;;;;;;3.00;0.90;;;15.10;91.60;;;;;;4992079;28;20074;-78
2023/10/28 16:08:39;;;;;;;4.40;1.20;;;15.10;91.60;;;;;;4992140;28;20483;-77
2023/10/28 16:11:05;;;;;;;5.43;1.25;;;15.10;91.60;;;;;;4992194;28;20041;-78
2023/10/28 16:13:32;;;;;;;3.97;1.00;;;15.10;91.70;;;;;;5009824;28;20033;-79
2023/10/28 16:15:58;;;;;;;2.78;0.85;;;15.10;91.70;;;;;;5010035;28;20030;-80
2023/10/28 16:18:23;;;;;;;4.57;0.90;;;15.10;91.70;;;;;;4991991;28;20132;-77
2023/10/28 16:20:49;;;;;;;2.38;0.90;;;15.10;91.70;;;;;;4992468;28;20029;-76
2023/10/28 16:23:16;;;;;;;2.88;0.98;;;15.10;91.70;;;;;;5009597;28;20026;-77
2023/10/28 16:25:42;;;;;;;3.50;0.90;;;15.00;91.70;;;;;;4991344;28;20037;-77
2023/10/28 16:28:08;;;;;;;3.33;0.98;;;15.10;91.70;;;;;;5009060;28;20419;-77
2023/10/28 16:30:34;;;;;;;2.70;1.13;;;15.10;91.70;;;;;;5009367;28;20041;-78
2023/10/28 16:33:00;;;;;;;3.50;1.00;;;15.10;91.70;;;;;;5009332;28;20073;-77
2023/10/28 16:35:26;;;;;;;3.28;0.98;;;15.10;91.70;;;;;;5006222;28;20053;-77
2023/10/28 16:37:51;;;;;;;2.92;0.80;;;15.10;91.70;;;;;;4997181;28;20113;-78